Aeroporto :
LOGIN :

Iscrizione | Disclaimer

   EN    FR    IT 

 










Sommario :    VFR   VFR Marginale   IFR   IFR Intensivo   IFR Molto Intensivo
Visibilità : 
Base nubi : 
>= 8 km
>= 3000ft
5 / 8 km
1000 / 3000 ft
1500m / 5 km
500 / 1000 ft
800 / 1500m
200 / 500 ft
< 800m
< 200 ft
Simboli :   Temporali  Nebbia  Neve Forte  Precipitazioni Forti  Vento > 20 kt
SIGMETs :   Varie  Temporali  Ghiacco  Turbolenza  Onda orograficha  Ceneri Vulcaniche






- Altitudine del aeroporto : 741 ft
- Codice IATA : PED


LKPD - Pardubice AB

ULTIMO METAR :
  • 142100Z 06007KT CAVOK 04/01 Q1009 RMK BLU

METARs OBSOLETI :
  • 142000Z 07006KT CAVOK 04/01 Q1008 NOSIG RMK BLU BLU
  • 141900Z 07007KT 9999 FEW028 04/01 Q1009 NOSIG RMK BLU BLU

TAF TAF LKPD
Valido dal 14 a 18 ore il 15 a 18 ore UTC


141700Z 1418/1518 10008KT 9999 BKN030
TEMPO 1418/1502 10016KT
BECMG 1502/1504 10012KT
TEMPO 1502/1512 12014G24KT
BECMG 1512/1514 15018KT
TEMPO 1512/1518 15025G35KT



MetMap, La meteo Aeronautica in un colpo d'occhio ! - Copyright ORBIFLY Dicembre 2007 - Disclaimer

ORBIFLY MET'MAP TEAM :

Programmazione e sviluppo : Alexandra Zaïnal
Concezione e sviluppo : Baudouin d'Aumeries
Co-Programmazione e sviluppo : Marc-Olivier Méhu
Supporto tecnico e logistico : Manuel Goepfert
Aiuto per la traduzione : Arnaldo La Scala

Contatto : metmap@orbifly.com




FONTI E CREDITI :

   NOAA